Time;durP1;ratioP1;P1;durP2;ratioP2;P2;SDS_P1;SDS_P2;PMS_P1;PMS_P2;Temp;Humidity;BMP_temperature;BMP_pressure;BME280_temperature;BME280_humidity;BME280_pressure;Samples;Min_cycle;Max_cycle;Signal;HPM_P1;HPM_P2
2022/04/14 00:01:47;;;;;;;16.27;9.85;;;12.10;99.90;;;;;;4976022;28;20065;-45
2022/04/14 00:04:16;;;;;;;18.30;10.82;;;10.40;99.90;;;;;;4992300;28;20407;-46
2022/04/14 00:06:42;;;;;;;17.40;11.27;;;10.20;99.90;;;;;;4993426;28;20060;-41
2022/04/14 00:09:07;;;;;;;15.52;10.27;;;10.30;99.90;;;;;;4992253;28;20041;-45
2022/04/14 00:11:33;;;;;;;16.27;9.52;;;10.70;99.90;;;;;;4993483;28;20091;-42
2022/04/14 00:13:59;;;;;;;17.63;10.90;;;10.90;99.90;;;;;;4991996;28;20038;-41
2022/04/14 00:16:24;;;;;;;16.67;10.05;;;11.50;99.90;;;;;;4992188;28;20175;-42
2022/04/14 00:18:50;;;;;;;15.13;10.70;;;10.10;99.90;;;;;;4993058;28;20049;-42
2022/04/14 00:21:16;;;;;;;15.30;11.10;;;10.20;99.90;;;;;;4961693;28;20043;-43
2022/04/14 00:23:41;;;;;;;15.70;10.90;;;10.30;99.90;;;;;;4953892;28;20053;-44
2022/04/14 00:26:07;;;;;;;18.90;11.93;;;11.30;99.90;;;;;;4967962;28;20042;-43
2022/04/14 00:28:34;;;;;;;18.42;11.27;;;11.50;99.90;;;;;;4957179;28;20092;-44
2022/04/14 00:30:59;;;;;;;19.58;10.75;;;10.10;99.90;;;;;;4957894;28;20043;-41
2022/04/14 00:33:26;;;;;;;20.63;11.73;;;10.80;99.90;;;;;;4956531;28;20054;-45
2022/04/14 00:35:52;;;;;;;19.08;10.60;;;10.80;99.90;;;;;;4958662;28;20035;-43
2022/04/14 00:38:18;;;;;;;20.58;12.00;;;9.90;99.90;;;;;;4957079;28;20046;-42
2022/04/14 00:40:44;;;;;;;18.85;12.10;;;10.90;99.90;;;;;;4956410;28;20079;-45
2022/04/14 00:43:12;;;;;;;19.23;12.23;;;9.90;99.90;;;;;;4958292;28;20198;-42
2022/04/14 00:45:37;;;;;;;15.52;11.15;;;11.10;99.90;;;;;;4958418;28;20335;-43
2022/04/14 00:48:03;;;;;;;21.08;12.52;;;9.80;99.90;;;;;;4957232;28;20414;-44
2022/04/14 00:50:29;;;;;;;20.60;12.90;;;9.80;99.90;;;;;;4957247;28;20038;-46
2022/04/14 00:52:55;;;;;;;18.65;13.35;;;9.80;99.90;;;;;;4958272;28;20046;-43
2022/04/14 00:55:20;;;;;;;20.95;12.80;;;10.10;99.90;;;;;;4957075;28;20165;-43
2022/04/14 00:57:47;;;;;;;19.20;12.27;;;9.60;99.90;;;;;;4957287;28;20541;-43
2022/04/14 01:00:13;;;;;;;19.30;13.43;;;9.70;99.90;;;;;;4957726;28;20104;-45
2022/04/14 01:02:39;;;;;;;23.20;13.80;;;9.50;99.90;;;;;;4957160;28;20049;-44
2022/04/14 01:05:07;;;;;;;17.40;11.82;;;9.50;99.90;;;;;;4957537;28;20627;-47
2022/04/14 01:07:36;;;;;;;21.67;12.93;;;9.40;99.90;;;;;;4957687;28;20051;-43
2022/04/14 01:10:03;;;;;;;23.85;12.75;;;9.40;99.90;;;;;;4956524;28;20043;-44
2022/04/14 01:12:31;;;;;;;25.48;13.65;;;9.30;99.90;;;;;;4957305;28;20326;-47
2022/04/14 01:14:56;;;;;;;19.52;13.73;;;9.30;99.90;;;;;;4957529;28;20129;-45
2022/04/14 01:17:22;;;;;;;20.95;13.57;;;9.30;99.90;;;;;;4954531;28;20531;-45
2022/04/14 01:19:48;;;;;;;20.67;13.27;;;10.00;99.90;;;;;;4956452;28;20062;-45
2022/04/14 01:22:51;;;;;;;20.23;14.13;;;9.30;99.90;;;;;;4991314;28;20062;-43
2022/04/14 01:25:17;;;;;;;23.48;14.63;;;9.10;99.90;;;;;;4934121;29;20076;-45
2022/04/14 01:27:42;;;;;;;25.33;14.85;;;11.30;99.90;;;;;;4934549;29;20055;-43
2022/04/14 01:30:09;;;;;;;22.33;13.80;;;9.10;99.90;;;;;;4917819;29;20058;-44
2022/04/14 01:32:34;;;;;;;24.70;14.82;;;9.00;99.90;;;;;;4917649;29;20043;-45
2022/04/14 01:35:01;;;;;;;20.67;14.30;;;10.20;99.90;;;;;;4933573;29;21952;-44
2022/04/14 01:37:27;;;;;;;22.23;14.70;;;9.00;99.90;;;;;;4935355;29;20551;-44
2022/04/14 01:39:54;;;;;;;23.13;15.68;;;9.00;99.90;;;;;;4918101;29;20304;-46
2022/04/14 01:42:20;;;;;;;28.08;15.10;;;9.00;99.90;;;;;;4932394;29;20051;-46
2022/04/14 01:44:45;;;;;;;20.52;15.32;;;10.70;99.90;;;;;;4933225;29;20040;-45
2022/04/14 01:47:11;;;;;;;23.40;14.88;;;9.00;99.90;;;;;;4933202;29;21011;-46
2022/04/14 01:49:37;;;;;;;26.25;16.27;;;8.70;99.90;;;;;;4933735;29;20438;-51
2022/04/14 01:52:03;;;;;;;21.17;13.85;;;8.70;99.90;;;;;;4932348;28;20350;-47
2022/04/14 01:54:28;;;;;;;26.77;16.08;;;8.60;99.90;;;;;;4933496;29;20055;-44
2022/04/14 01:56:56;;;;;;;27.33;16.55;;;8.70;99.90;;;;;;4931924;29;20467;-47
2022/04/14 01:59:22;;;;;;;27.60;16.48;;;8.70;99.90;;;;;;4933249;29;20061;-43
2022/04/14 02:01:47;;;;;;;25.63;16.55;;;8.70;99.90;;;;;;4938456;28;21080;-44
2022/04/14 02:04:13;;;;;;;27.80;17.75;;;8.60;99.90;;;;;;4994219;28;20061;-43
2022/04/14 02:06:38;;;;;;;30.67;17.77;;;8.70;99.90;;;;;;4995569;28;20564;-44
2022/04/14 02:09:05;;;;;;;27.05;17.85;;;9.50;99.90;;;;;;4994602;28;20049;-43
2022/04/14 02:11:31;;;;;;;27.27;17.08;;;8.70;99.90;;;;;;4993456;28;20075;-43
2022/04/14 02:13:57;;;;;;;27.10;17.95;;;8.70;99.90;;;;;;4994124;28;20041;-50
2022/04/14 02:16:22;;;;;;;29.77;18.70;;;8.60;99.90;;;;;;4993419;28;20509;-44
2022/04/14 02:18:48;;;;;;;28.73;17.88;;;8.60;99.90;;;;;;4993787;28;20756;-44
2022/04/14 02:21:14;;;;;;;29.60;19.55;;;8.40;99.90;;;;;;4993154;28;20054;-42
2022/04/14 02:23:39;;;;;;;33.13;20.63;;;10.70;99.90;;;;;;4992883;28;20282;-45
2022/04/14 02:26:07;;;;;;;28.95;20.88;;;8.50;99.90;;;;;;4994296;28;20581;-41
2022/04/14 02:28:33;;;;;;;31.08;21.13;;;8.60;99.90;;;;;;4993981;28;20052;-40
2022/04/14 02:30:58;;;;;;;31.77;21.40;;;8.50;99.90;;;;;;4993340;28;20033;-46
2022/04/14 02:33:26;;;;;;;27.85;19.35;;;10.10;99.90;;;;;;4994530;28;20053;-43
2022/04/14 02:35:52;;;;;;;36.22;22.83;;;9.80;99.90;;;;;;4994695;28;20085;-42
2022/04/14 02:38:18;;;;;;;35.78;22.35;;;8.50;99.90;;;;;;4993826;28;20077;-45
2022/04/14 02:40:47;;;;;;;31.33;20.95;;;9.90;99.90;;;;;;4994152;28;20478;-42
2022/04/14 02:43:12;;;;;;;32.78;21.42;;;8.50;99.90;;;;;;4993861;28;20058;-43
2022/04/14 02:45:38;;;;;;;35.08;23.40;;;8.30;99.90;;;;;;4995007;28;20067;-42
2022/04/14 02:48:06;;;;;;;33.55;22.05;;;8.40;99.90;;;;;;4992675;28;20450;-44
2022/04/14 02:50:32;;;;;;;38.65;22.17;;;8.30;99.90;;;;;;4993017;28;20045;-45
2022/04/14 02:52:57;;;;;;;31.90;20.40;;;8.40;99.90;;;;;;4993717;28;20042;-41
2022/04/14 02:55:25;;;;;;;34.47;22.85;;;8.30;99.90;;;;;;4994240;28;20046;-42
2022/04/14 02:57:51;;;;;;;37.20;23.13;;;8.40;99.90;;;;;;4992378;28;20844;-47
2022/04/14 03:00:17;;;;;;;34.85;24.30;;;8.10;99.90;;;;;;4993554;28;20763;-43
2022/04/14 03:02:43;;;;;;;38.42;24.25;;;8.10;99.90;;;;;;4994103;28;20123;-43
2022/04/14 03:05:09;;;;;;;34.63;23.77;;;8.20;99.90;;;;;;4993424;28;20128;-41
2022/04/14 03:07:36;;;;;;;39.08;24.67;;;8.00;99.90;;;;;;4994502;28;20116;-42
2022/04/14 03:10:04;;;;;;;34.33;22.73;;;8.00;99.90;;;;;;4993423;28;20132;-46
2022/04/14 03:12:46;;;;;;;35.67;23.42;;;7.90;99.90;;;;;;4993154;28;20498;-43
2022/04/14 03:15:12;;;;;;;36.15;23.23;;;8.00;99.90;;;;;;4993726;28;20271;-45
2022/04/14 03:17:37;;;;;;;43.13;26.98;;;9.00;99.90;;;;;;4993623;28;20049;-47
2022/04/14 03:20:04;;;;;;;40.03;26.08;;;8.90;99.90;;;;;;4993089;28;20038;-42
2022/04/14 03:22:33;;;;;;;45.78;27.02;;;8.00;99.90;;;;;;4993194;28;20057;-44
2022/04/14 03:25:11;;;;;;;40.67;25.25;;;8.10;99.90;;;;;;4992811;28;20073;-42
2022/04/14 03:27:37;;;;;;;39.30;25.85;;;6.00;99.90;;;;;;4992887;28;20053;-46
2022/04/14 03:30:10;;;;;;;39.50;26.25;;;8.10;99.90;;;;;;4993813;28;20048;-45
2022/04/14 03:32:43;;;;;;;40.63;28.90;;;7.90;99.90;;;;;;4993719;28;20049;-43
2022/04/14 03:35:11;;;;;;;42.90;27.33;;;7.90;99.90;;;;;;4993199;28;20052;-41
2022/04/14 03:37:38;;;;;;;44.08;28.88;;;7.90;99.90;;;;;;4994298;28;20120;-42
2022/04/14 03:40:05;;;;;;;43.58;28.58;;;8.60;99.90;;;;;;4993333;28;20080;-43
2022/04/14 03:42:31;;;;;;;48.60;27.70;;;7.80;99.90;;;;;;4992015;28;20037;-42
2022/04/14 03:44:58;;;;;;;49.22;28.75;;;8.70;99.90;;;;;;4993084;28;21342;-41
2022/04/14 03:47:24;;;;;;;42.58;28.00;;;8.40;99.90;;;;;;4993326;28;20049;-40
2022/04/14 03:49:52;;;;;;;42.15;27.00;;;8.70;99.90;;;;;;4992501;28;20053;-39
2022/04/14 03:52:18;;;;;;;42.22;27.70;;;7.70;99.90;;;;;;4991132;28;20049;-39
2022/04/14 03:54:44;;;;;;;46.50;29.08;;;7.60;99.90;;;;;;4993864;28;20430;-39
2022/04/14 03:57:12;;;;;;;29.77;21.45;;;7.80;99.90;;;;;;4974648;28;20050;-39
2022/04/14 03:59:38;;;;;;;35.83;23.27;;;8.90;99.90;;;;;;4993259;28;20046;-38
2022/04/14 04:02:04;;;;;;;38.60;23.52;;;8.30;99.90;;;;;;4992707;28;20222;-39
2022/04/14 04:04:32;;;;;;;33.15;22.88;;;7.50;99.90;;;;;;4992281;28;20502;-39
2022/04/14 04:06:59;;;;;;;31.00;20.48;;;7.40;99.90;;;;;;4993013;28;20046;-41
2022/04/14 04:09:26;;;;;;;29.88;21.33;;;8.30;99.90;;;;;;4992383;28;20314;-40
2022/04/14 04:11:57;;;;;;;29.83;21.02;;;7.10;99.90;;;;;;4993083;28;20803;-42
2022/04/14 04:14:23;;;;;;;28.52;19.58;;;6.90;99.90;;;;;;4993534;28;20041;-45
2022/04/14 04:16:49;;;;;;;39.38;24.30;;;7.20;99.90;;;;;;4992042;28;20037;-45
2022/04/14 04:19:16;;;;;;;35.58;22.15;;;7.10;99.90;;;;;;4991696;28;20509;-47
2022/04/14 04:21:42;;;;;;;37.08;22.75;;;8.10;99.90;;;;;;4993624;28;20127;-44
2022/04/14 04:24:09;;;;;;;47.95;27.63;;;7.00;99.90;;;;;;4992232;28;20057;-47
2022/04/14 04:26:35;;;;;;;31.13;20.15;;;6.90;99.90;;;;;;4992491;28;20046;-47
2022/04/14 04:29:00;;;;;;;36.50;23.52;;;6.90;99.90;;;;;;4992495;28;20041;-48
2022/04/14 04:31:26;;;;;;;35.17;23.90;;;6.90;99.90;;;;;;4992805;28;20129;-48
2022/04/14 04:33:53;;;;;;;42.80;27.75;;;7.10;99.90;;;;;;4992328;28;20128;-48
2022/04/14 04:36:18;;;;;;;43.05;27.10;;;7.00;99.90;;;;;;4991690;28;20449;-47
2022/04/14 04:38:44;;;;;;;48.13;26.88;;;6.90;99.90;;;;;;4993519;28;20041;-47
2022/04/14 04:41:10;;;;;;;28.17;19.35;;;7.00;99.90;;;;;;4992083;28;20466;-49
2022/04/14 04:43:36;;;;;;;46.40;27.95;;;6.90;99.90;;;;;;4991994;28;20042;-47
2022/04/14 04:46:01;;;;;;;38.22;26.40;;;7.00;99.90;;;;;;4992520;28;20037;-48
2022/04/14 04:48:29;;;;;;;28.50;21.55;;;7.10;99.90;;;;;;4992031;28;20042;-43
2022/04/14 04:50:56;;;;;;;38.70;25.20;;;7.10;99.90;;;;;;4991823;28;20574;-47
2022/04/14 04:53:21;;;;;;;43.05;27.13;;;7.00;99.90;;;;;;4990972;28;20522;-48
2022/04/14 04:55:50;;;;;;;38.45;24.70;;;7.00;99.90;;;;;;4992322;28;20117;-44
2022/04/14 04:58:15;;;;;;;32.40;23.85;;;6.90;99.90;;;;;;4992288;28;20484;-45
2022/04/14 05:00:41;;;;;;;45.63;29.02;;;7.20;99.90;;;;;;4990911;28;20038;-46
2022/04/14 05:03:11;;;;;;;46.22;28.23;;;7.00;99.90;;;;;;4991579;28;20041;-47
2022/04/14 05:05:37;;;;;;;51.53;29.50;;;7.00;99.90;;;;;;4990818;28;20042;-45
2022/04/14 05:08:04;;;;;;;60.42;32.08;;;7.00;99.90;;;;;;4993005;28;20576;-49
2022/04/14 05:10:30;;;;;;;35.17;23.92;;;7.00;99.90;;;;;;4991970;28;20045;-44
2022/04/14 05:12:55;;;;;;;55.75;33.67;;;7.00;99.90;;;;;;4991923;28;20284;-45
2022/04/14 05:15:21;;;;;;;37.15;24.15;;;7.10;99.90;;;;;;4995735;28;20038;-50
2022/04/14 05:17:49;;;;;;;48.88;29.42;;;7.00;99.90;;;;;;4994810;28;20080;-46
2022/04/14 05:20:14;;;;;;;39.55;27.15;;;7.20;99.90;;;;;;4993441;28;20041;-47
2022/04/14 05:22:40;;;;;;;41.97;28.83;;;7.30;99.90;;;;;;4995090;28;20479;-48
2022/04/14 05:25:06;;;;;;;39.72;27.20;;;7.50;99.90;;;;;;4994500;28;20120;-47
2022/04/14 05:27:32;;;;;;;42.42;28.70;;;7.60;99.90;;;;;;4994587;28;20621;-48
2022/04/14 05:29:57;;;;;;;45.65;30.00;;;8.30;99.90;;;;;;4995005;28;20506;-49
2022/04/14 05:32:26;;;;;;;53.90;33.65;;;7.80;99.90;;;;;;4995191;28;20069;-46
2022/04/14 05:34:52;;;;;;;49.03;32.55;;;8.10;99.90;;;;;;4995056;28;20140;-44
2022/04/14 05:37:18;;;;;;;56.97;36.35;;;9.20;99.90;;;;;;4994962;28;20049;-49
2022/04/14 05:39:46;;;;;;;57.15;35.72;;;8.60;99.90;;;;;;4995048;28;20497;-47
2022/04/14 05:42:12;;;;;;;53.20;34.75;;;10.10;99.90;;;;;;4995784;28;20081;-45
2022/04/14 05:44:37;;;;;;;55.42;34.65;;;8.90;99.90;;;;;;4993813;28;20550;-44
2022/04/14 05:47:03;;;;;;;56.38;35.35;;;9.00;99.90;;;;;;4993929;28;20054;-47
2022/04/14 05:49:29;;;;;;;55.92;36.10;;;9.00;99.90;;;;;;4992596;28;20042;-50
2022/04/14 05:51:55;;;;;;;42.58;31.45;;;9.00;99.90;;;;;;4994754;28;20141;-48
2022/04/14 05:54:20;;;;;;;44.42;30.83;;;9.30;99.90;;;;;;4994184;28;20053;-49
2022/04/14 05:56:46;;;;;;;44.92;31.42;;;9.70;99.90;;;;;;4994089;28;20042;-49
2022/04/14 05:59:16;;;;;;;41.38;29.70;;;10.30;99.90;;;;;;4994257;28;20784;-46
2022/04/14 06:01:46;;;;;;;38.05;26.73;;;10.50;99.90;;;;;;4995018;28;20042;-45
2022/04/14 06:04:12;;;;;;;34.17;24.73;;;12.20;99.90;;;;;;4994224;28;20073;-48
2022/04/14 06:06:40;;;;;;;33.38;24.23;;;12.10;99.90;;;;;;4993819;28;20042;-46
2022/04/14 06:09:06;;;;;;;37.40;25.38;;;11.30;99.90;;;;;;4993226;28;20581;-47
2022/04/14 06:11:32;;;;;;;32.85;23.27;;;11.70;99.90;;;;;;4993598;28;21202;-47
2022/04/14 06:13:57;;;;;;;32.53;22.35;;;12.10;99.90;;;;;;4994511;28;20038;-47
2022/04/14 06:16:23;;;;;;;32.03;22.48;;;12.30;99.90;;;;;;4993188;28;20041;-46
2022/04/14 06:18:49;;;;;;;31.42;22.35;;;13.20;99.90;;;;;;4994019;28;20034;-48
2022/04/14 06:21:18;;;;;;;29.67;22.90;;;11.60;99.90;;;;;;4994578;28;20061;-46
2022/04/14 06:23:45;;;;;;;28.13;22.15;;;13.90;99.90;;;;;;4995624;28;20464;-48
2022/04/14 06:26:11;;;;;;;25.77;20.98;;;13.60;99.90;;;;;;4993116;28;20046;-46
2022/04/14 06:28:38;;;;;;;27.58;21.27;;;14.10;99.90;;;;;;4993767;28;20064;-49
2022/04/14 06:31:06;;;;;;;28.30;20.63;;;14.30;99.90;;;;;;4992607;28;20049;-47
2022/04/14 06:33:32;;;;;;;26.08;20.33;;;16.40;99.90;;;;;;4994146;28;20438;-50
2022/04/14 06:36:00;;;;;;;29.65;20.55;;;14.20;99.90;;;;;;4960465;28;20034;-45
2022/04/14 06:38:27;;;;;;;31.08;21.63;;;16.30;99.90;;;;;;4993881;28;20572;-48
2022/04/14 06:40:54;;;;;;;27.30;20.60;;;13.80;99.90;;;;;;4993348;28;20534;-49
2022/04/14 06:43:20;;;;;;;28.60;20.15;;;14.50;99.90;;;;;;4992828;28;20076;-47
2022/04/14 06:45:48;;;;;;;26.00;18.15;;;15.30;99.90;;;;;;4993730;28;20052;-50
2022/04/14 06:48:14;;;;;;;26.98;19.17;;;17.80;99.90;;;;;;4993666;28;20499;-47
2022/04/14 06:50:40;;;;;;;25.25;17.58;;;16.80;99.90;;;;;;4993730;28;20049;-52
2022/04/14 06:53:08;;;;;;;24.33;18.02;;;17.80;99.90;;;;;;4993586;28;20038;-50
2022/04/14 06:55:36;;;;;;;23.73;16.95;;;18.00;99.90;;;;;;4994334;28;20037;-50
2022/04/14 06:58:02;;;;;;;26.50;18.48;;;19.00;99.90;;;;;;4992549;28;20495;-51
2022/04/14 07:00:28;;;;;;;21.13;16.20;;;19.20;99.90;;;;;;4991540;28;20042;-47
2022/04/14 07:02:55;;;;;;;22.58;16.17;;;21.20;99.90;;;;;;4993940;28;20053;-51
2022/04/14 07:05:22;;;;;;;24.95;15.95;;;20.10;99.90;;;;;;4993304;28;20054;-50
2022/04/14 07:07:49;;;;;;;22.63;15.65;;;20.60;99.90;;;;;;4992895;28;20656;-52
2022/04/14 07:10:15;;;;;;;16.33;14.30;;;20.50;99.90;;;;;;4993006;28;20345;-50
2022/04/14 07:12:42;;;;;;;16.88;13.45;;;22.00;99.90;;;;;;4992331;28;20128;-52
2022/04/14 07:15:10;;;;;;;20.85;14.32;;;20.80;99.90;;;;;;4975658;28;20061;-52
2022/04/14 07:17:37;;;;;;;18.60;13.57;;;21.50;99.90;;;;;;4992637;28;20038;-50
2022/04/14 07:20:05;;;;;;;20.20;12.90;;;21.50;99.90;;;;;;4993943;28;20073;-53
2022/04/14 07:22:40;;;;;;;17.65;13.98;;;21.70;99.90;;;;;;4992517;28;20046;-53
2022/04/14 07:25:06;;;;;;;18.40;14.25;;;21.70;99.90;;;;;;4993256;28;20070;-51
2022/04/14 07:27:33;;;;;;;17.13;14.90;;;21.80;99.90;;;;;;4991163;28;20045;-49
2022/04/14 07:29:59;;;;;;;18.40;14.52;;;21.30;99.90;;;;;;4992342;28;20053;-50
2022/04/14 07:32:46;;;;;;;17.90;15.07;;;21.10;99.90;;;;;;4993581;28;20052;-51
2022/04/14 07:35:14;;;;;;;19.45;14.32;;;20.80;99.90;;;;;;4993025;28;20041;-47
2022/04/14 07:37:40;;;;;;;17.75;13.77;;;20.10;99.90;;;;;;4972542;28;20050;-46
2022/04/14 07:40:06;;;;;;;17.48;14.20;;;19.90;99.90;;;;;;4974406;28;20062;-48
2022/04/14 07:42:33;;;;;;;19.42;14.52;;;19.70;99.90;;;;;;4992992;28;20498;-53
2022/04/14 07:44:59;;;;;;;19.60;13.82;;;19.50;99.90;;;;;;4992754;28;20175;-51
2022/04/14 07:47:25;;;;;;;17.40;13.43;;;19.30;99.90;;;;;;4991562;28;21242;-52
2022/04/14 07:49:53;;;;;;;19.77;14.88;;;19.20;99.90;;;;;;4991782;28;20041;-52
2022/04/14 07:52:18;;;;;;;19.88;15.02;;;19.00;99.90;;;;;;4993130;28;20065;-50
2022/04/14 07:54:44;;;;;;;18.15;14.90;;;18.70;99.90;;;;;;4994568;28;20100;-50
2022/04/14 07:57:12;;;;;;;17.73;13.85;;;19.00;99.90;;;;;;4991249;28;20061;-51
2022/04/14 07:59:38;;;;;;;17.98;13.88;;;20.90;99.90;;;;;;4992231;28;20037;-48
2022/04/14 08:02:04;;;;;;;16.42;13.75;;;19.00;99.90;;;;;;4993280;28;20134;-51
2022/04/14 08:04:32;;;;;;;17.58;14.13;;;19.30;99.90;;;;;;4992657;28;20040;-51
2022/04/14 08:06:58;;;;;;;16.65;14.88;;;19.20;99.90;;;;;;4991192;28;20040;-51
2022/04/14 08:09:23;;;;;;;17.88;13.98;;;19.10;99.90;;;;;;4993734;28;20145;-50
2022/04/14 08:11:49;;;;;;;17.63;14.38;;;19.20;99.90;;;;;;4994043;28;20446;-47
2022/04/14 08:14:15;;;;;;;16.52;13.80;;;19.30;99.90;;;;;;4991628;28;20100;-49
2022/04/14 08:16:41;;;;;;;18.48;14.15;;;19.40;99.90;;;;;;4975332;28;20129;-47
2022/04/14 08:19:08;;;;;;;28.92;15.65;;;19.00;99.90;;;;;;4992506;28;20060;-47
2022/04/14 08:21:34;;;;;;;22.42;14.13;;;20.40;99.90;;;;;;4974757;28;20297;-46
2022/04/14 08:24:01;;;;;;;18.45;12.68;;;18.80;99.90;;;;;;4990597;28;20502;-45
2022/04/14 08:26:27;;;;;;;18.25;12.80;;;19.10;99.90;;;;;;4990624;28;20038;-49
2022/04/14 08:28:55;;;;;;;17.73;13.90;;;19.70;99.90;;;;;;4992062;28;20052;-50
2022/04/14 08:31:21;;;;;;;17.33;12.73;;;20.00;99.90;;;;;;4992584;28;20049;-49
2022/04/14 08:33:48;;;;;;;17.58;13.43;;;19.60;99.90;;;;;;4992348;28;20037;-49
2022/04/14 08:36:17;;;;;;;15.35;12.57;;;19.50;99.90;;;;;;4991786;28;20042;-49
2022/04/14 08:38:47;;;;;;;15.20;11.95;;;19.10;99.90;;;;;;4992893;28;20042;-48
2022/04/14 08:41:21;;;;;;;15.70;11.80;;;19.00;99.90;;;;;;4991351;28;20338;-45
2022/04/14 08:43:48;;;;;;;15.07;10.52;;;18.90;99.90;;;;;;4991350;28;20491;-47
2022/04/14 08:46:15;;;;;;;61.55;22.67;;;18.90;99.90;;;;;;4991173;28;20041;-47
2022/04/14 08:48:43;;;;;;;33.05;15.90;;;19.10;99.90;;;;;;4992723;28;20739;-46
2022/04/14 08:51:14;;;;;;;15.32;10.30;;;19.20;99.90;;;;;;4995349;28;20501;-49
2022/04/14 08:53:41;;;;;;;18.08;10.73;;;19.20;99.90;;;;;;4995905;28;20037;-47
2022/04/14 08:56:06;;;;;;;15.23;11.45;;;19.10;99.90;;;;;;4994781;28;20042;-45
2022/04/14 08:58:35;;;;;;;17.52;11.30;;;20.00;99.90;;;;;;4995365;28;20049;-49
2022/04/14 09:01:01;;;;;;;16.55;11.10;;;19.30;99.90;;;;;;4996612;28;20042;-47
2022/04/14 09:03:28;;;;;;;15.40;10.35;;;21.00;99.90;;;;;;4995392;28;20173;-47
2022/04/14 09:05:55;;;;;;;21.35;10.88;;;19.10;99.90;;;;;;4994054;28;20761;-49
2022/04/14 09:08:24;;;;;;;15.57;9.10;;;19.10;99.90;;;;;;4995513;28;20076;-47
2022/04/14 09:10:52;;;;;;;13.38;9.57;;;19.30;99.90;;;;;;4978534;28;20057;-46
2022/04/14 09:13:20;;;;;;;16.40;9.65;;;19.20;99.90;;;;;;4994585;28;20064;-48
2022/04/14 09:15:47;;;;;;;16.30;9.73;;;21.10;99.90;;;;;;4994027;28;20042;-47
2022/04/14 09:18:13;;;;;;;13.65;8.50;;;19.30;99.90;;;;;;4992223;28;20046;-46
2022/04/14 09:20:41;;;;;;;13.65;9.07;;;19.30;99.90;;;;;;4994395;28;20060;-46
2022/04/14 09:23:21;;;;;;;14.52;9.63;;;18.90;99.90;;;;;;4994851;28;20058;-48
2022/04/14 09:25:48;;;;;;;13.15;7.93;;;18.80;99.90;;;;;;4994827;28;20159;-50
2022/04/14 09:28:16;;;;;;;15.52;9.95;;;19.40;99.90;;;;;;4977555;28;20045;-46
2022/04/14 09:31:07;;;;;;;16.33;10.20;;;19.60;99.90;;;;;;4994540;28;20157;-45
2022/04/14 09:33:44;;;;;;;12.52;8.43;;;20.00;99.90;;;;;;4993592;28;20196;-49
2022/04/14 09:36:20;;;;;;;13.85;8.95;;;20.50;99.90;;;;;;4993031;28;20518;-44
2022/04/14 09:39:07;;;;;;;10.90;7.03;;;20.30;99.90;;;;;;4995453;28;20048;-46
2022/04/14 09:41:42;;;;;;;9.93;6.05;;;21.40;99.90;;;;;;4976083;28;20085;-45
2022/04/14 09:44:12;;;;;;;10.50;6.57;;;19.20;99.90;;;;;;4994475;28;20046;-47
2022/04/14 09:46:47;;;;;;;12.90;6.70;;;20.70;99.90;;;;;;4993448;28;20038;-46
2022/04/14 09:49:17;;;;;;;11.43;6.32;;;18.80;99.90;;;;;;4994327;28;20038;-44
2022/04/14 09:51:46;;;;;;;10.63;6.55;;;18.50;99.90;;;;;;4992188;28;20041;-46
2022/04/14 09:54:17;;;;;;;11.82;7.63;;;18.30;99.90;;;;;;4993633;28;20033;-46
2022/04/14 09:56:54;;;;;;;10.95;6.82;;;19.50;99.90;;;;;;4992898;28;20038;-44
2022/04/14 09:59:29;;;;;;;12.90;6.40;;;18.50;99.90;;;;;;4976264;28;20049;-44
2022/04/14 10:02:12;;;;;;;14.35;7.25;;;18.60;99.90;;;;;;4995490;28;20054;-48
2022/04/14 10:04:43;;;;;;;11.55;7.07;;;18.10;99.90;;;;;;4992840;28;20588;-47
2022/04/14 10:07:15;;;;;;;10.93;7.17;;;18.50;99.90;;;;;;4993139;28;20625;-47
2022/04/14 10:09:42;;;;;;;12.75;7.43;;;18.80;99.90;;;;;;4993723;28;20320;-43
2022/04/14 10:12:40;;;;;;;10.02;6.07;;;19.00;99.90;;;;;;4992333;28;20046;-44
2022/04/14 10:15:09;;;;;;;11.20;4.93;;;19.00;99.90;;;;;;4911143;29;20424;-46
2022/04/14 10:17:40;;;;;;;10.95;5.32;;;20.60;99.90;;;;;;4911800;29;20802;-45
2022/04/14 10:20:07;;;;;;;7.90;4.65;;;18.80;99.90;;;;;;4913585;29;20051;-45
2022/04/14 10:22:34;;;;;;;7.30;4.05;;;19.00;99.90;;;;;;4912422;29;20111;-43
2022/04/14 10:25:01;;;;;;;8.10;4.20;;;19.20;99.90;;;;;;4911247;29;20142;-45
2022/04/14 10:27:29;;;;;;;38.50;10.68;;;19.50;99.90;;;;;;4912814;29;20039;-49
2022/04/14 10:29:58;;;;;;;34.85;9.05;;;19.60;99.90;;;;;;4911849;29;20134;-44
2022/04/14 10:32:26;;;;;;;19.77;6.13;;;19.60;99.90;;;;;;4912630;29;20828;-49
2022/04/14 10:34:51;;;;;;;12.90;5.28;;;19.90;99.90;;;;;;4911966;29;20043;-46
2022/04/14 10:37:30;;;;;;;11.00;4.93;;;20.70;99.90;;;;;;4913218;29;20184;-48
2022/04/14 10:39:56;;;;;;;13.23;4.82;;;20.00;99.90;;;;;;4915133;29;20044;-48
2022/04/14 10:42:29;;;;;;;10.13;4.20;;;19.70;99.90;;;;;;4913584;29;20095;-47
2022/04/14 10:44:55;;;;;;;8.73;3.72;;;19.60;99.90;;;;;;4913032;29;21033;-47
2022/04/14 10:47:50;;;;;;;9.90;3.00;;;19.90;99.90;;;;;;4911217;29;20139;-46
2022/04/14 10:50:33;;;;;;;13.52;4.40;;;19.00;99.90;;;;;;4935793;28;20510;-46
2022/04/14 10:53:13;;;;;;;23.45;6.15;;;18.50;99.90;;;;;;4992894;28;20450;-46
2022/04/14 10:55:44;;;;;;;15.98;4.50;;;19.00;99.90;;;;;;4991487;28;20042;-44
2022/04/14 10:58:51;;;;;;;9.98;3.05;;;19.20;99.90;;;;;;4989972;28;20405;-47
2022/04/14 11:01:58;;;;;;;6.72;1.98;;;19.30;99.90;;;;;;4917202;29;20265;-45
2022/04/14 11:04:41;;;;;;;7.20;1.90;;;19.40;99.90;;;;;;4917033;28;20461;-45
2022/04/14 11:07:10;;;;;;;5.50;2.30;;;19.40;99.90;;;;;;4920045;29;20047;-45
2022/04/14 11:09:48;;;;;;;7.30;2.60;;;19.80;99.90;;;;;;4918987;29;20083;-46
2022/04/14 11:12:26;;;;;;;9.93;2.65;;;19.80;99.90;;;;;;4918020;29;20524;-44
2022/04/14 11:14:59;;;;;;;7.70;2.50;;;19.90;99.90;;;;;;4918403;29;20046;-48
2022/04/14 11:17:31;;;;;;;28.02;3.15;;;20.20;99.90;;;;;;4916972;29;20093;-45
2022/04/14 11:20:35;;;;;;;7.10;1.92;;;19.90;99.90;;;;;;4915788;29;20115;-43
2022/04/14 11:23:13;;;;;;;5.03;2.05;;;19.70;99.90;;;;;;4893184;29;20124;-45
2022/04/14 11:25:49;;;;;;;6.18;2.03;;;19.50;99.90;;;;;;4891583;29;20044;-46
2022/04/14 11:28:22;;;;;;;4.72;1.80;;;19.30;99.90;;;;;;4876736;29;20055;-45
2022/04/14 11:30:50;;;;;;;5.95;2.72;;;19.30;99.90;;;;;;4896678;29;20882;-46
2022/04/14 11:33:22;;;;;;;8.73;3.05;;;19.20;99.90;;;;;;4892355;29;20094;-46
2022/04/14 11:35:48;;;;;;;6.85;3.97;;;19.40;99.90;;;;;;4912595;29;20389;-44
2022/04/14 11:39:00;;;;;;;9.02;4.30;;;20.50;99.90;;;;;;4914116;29;20965;-47
2022/04/14 11:41:31;;;;;;;9.82;4.55;;;19.40;99.90;;;;;;4914222;29;20211;-45
2022/04/14 11:43:58;;;;;;;7.53;4.33;;;19.20;99.90;;;;;;4897280;29;20341;-46
2022/04/14 11:46:24;;;;;;;9.95;5.18;;;19.40;99.90;;;;;;4915860;29;20075;-49
2022/04/14 11:48:50;;;;;;;7.45;3.80;;;19.20;99.90;;;;;;4898343;29;20148;-46
2022/04/14 11:51:19;;;;;;;9.88;4.20;;;19.90;99.90;;;;;;4913147;29;20039;-45
2022/04/14 11:53:45;;;;;;;10.93;4.70;;;18.50;99.90;;;;;;4915398;29;20048;-48
2022/04/14 11:56:20;;;;;;;16.55;4.75;;;18.30;99.90;;;;;;4914043;29;21088;-45
2022/04/14 11:58:46;;;;;;;11.20;3.85;;;18.10;99.90;;;;;;4918365;28;20595;-45
2022/04/14 12:01:13;;;;;;;9.63;3.53;;;18.30;99.90;;;;;;4993203;28;20522;-48
2022/04/14 12:03:41;;;;;;;9.80;3.95;;;20.50;99.90;;;;;;4975165;28;20503;-47
2022/04/14 12:06:16;;;;;;;14.63;4.47;;;18.20;99.90;;;;;;4992570;28;20038;-47
2022/04/14 12:08:53;;;;;;;8.00;4.15;;;20.10;99.90;;;;;;4992073;28;20034;-44
2022/04/14 12:11:20;;;;;;;48.58;6.22;;;18.70;99.90;;;;;;4993032;28;20068;-48
2022/04/14 12:13:46;;;;;;;10.15;4.10;;;19.00;99.90;;;;;;4991637;28;21175;-45
2022/04/14 12:16:12;;;;;;;7.82;3.42;;;19.10;99.90;;;;;;4991514;28;20046;-43
2022/04/14 12:18:47;;;;;;;7.45;2.75;;;19.40;99.90;;;;;;4991822;28;20042;-43
2022/04/14 12:21:22;;;;;;;7.20;2.20;;;19.40;99.90;;;;;;4990005;28;20046;-44
2022/04/14 12:23:49;;;;;;;8.40;2.58;;;19.20;99.90;;;;;;4992651;28;20038;-45
2022/04/14 12:26:17;;;;;;;5.55;2.00;;;17.30;99.90;;;;;;4994079;28;20050;-44
2022/04/14 12:28:45;;;;;;;8.23;3.53;;;19.30;99.90;;;;;;4994920;28;20518;-44
2022/04/14 12:31:11;;;;;;;8.93;3.45;;;19.80;99.90;;;;;;4995086;28;20414;-46
2022/04/14 12:33:37;;;;;;;8.77;2.92;;;19.20;99.90;;;;;;4995209;28;20049;-44
2022/04/14 12:36:10;;;;;;;7.65;3.60;;;18.80;99.90;;;;;;4994466;28;20053;-43
2022/04/14 12:38:43;;;;;;;10.80;3.85;;;18.50;99.90;;;;;;4994073;28;20046;-47
2022/04/14 12:41:17;;;;;;;7.32;3.30;;;18.60;99.90;;;;;;4994496;28;20041;-46
2022/04/14 12:43:47;;;;;;;8.00;3.28;;;18.30;99.90;;;;;;4994112;28;20095;-43